sensor_id;sensor_type;location;lat;lon;timestamp;P1;durP1;ratioP1;P2;durP2;ratioP2
25391;SDS011;13329;48.402;11.718;2022-10-16T00:00:14;1.70;;;1.17;;
25391;SDS011;13329;48.402;11.718;2022-10-16T00:02:40;3.10;;;1.53;;
25391;SDS011;13329;48.402;11.718;2022-10-16T00:05:05;2.90;;;1.60;;
25391;SDS011;13329;48.402;11.718;2022-10-16T00:07:30;5.15;;;2.22;;
25391;SDS011;13329;48.402;11.718;2022-10-16T00:09:55;3.37;;;1.40;;
25391;SDS011;13329;48.402;11.718;2022-10-16T00:12:20;2.53;;;1.37;;
25391;SDS011;13329;48.402;11.718;2022-10-16T00:14:45;1.73;;;1.00;;
25391;SDS011;13329;48.402;11.718;2022-10-16T00:17:11;1.60;;;1.17;;
25391;SDS011;13329;48.402;11.718;2022-10-16T00:19:36;3.37;;;1.60;;
25391;SDS011;13329;48.402;11.718;2022-10-16T00:22:01;3.07;;;1.23;;
25391;SDS011;13329;48.402;11.718;2022-10-16T00:24:26;2.47;;;1.43;;
25391;SDS011;13329;48.402;11.718;2022-10-16T00:26:51;6.07;;;1.50;;
25391;SDS011;13329;48.402;11.718;2022-10-16T00:29:17;2.47;;;1.17;;
25391;SDS011;13329;48.402;11.718;2022-10-16T00:31:42;5.15;;;1.60;;
25391;SDS011;13329;48.402;11.718;2022-10-16T00:34:07;5.20;;;1.50;;
25391;SDS011;13329;48.402;11.718;2022-10-16T00:36:32;2.70;;;1.27;;
25391;SDS011;13329;48.402;11.718;2022-10-16T00:38:58;2.87;;;1.40;;
25391;SDS011;13329;48.402;11.718;2022-10-16T00:41:25;7.43;;;1.40;;
25391;SDS011;13329;48.402;11.718;2022-10-16T00:46:20;2.27;;;1.40;;
25391;SDS011;13329;48.402;11.718;2022-10-16T00:48:48;1.63;;;1.38;;
25391;SDS011;13329;48.402;11.718;2022-10-16T00:51:15;1.88;;;1.42;;
25391;SDS011;13329;48.402;11.718;2022-10-16T00:53:42;5.43;;;1.77;;
25391;SDS011;13329;48.402;11.718;2022-10-16T00:56:07;2.53;;;1.50;;
25391;SDS011;13329;48.402;11.718;2022-10-16T00:58:32;4.60;;;1.55;;
25391;SDS011;13329;48.402;11.718;2022-10-16T01:00:57;4.03;;;1.70;;
25391;SDS011;13329;48.402;11.718;2022-10-16T01:06:04;4.60;;;1.40;;
25391;SDS011;13329;48.402;11.718;2022-10-16T01:08:44;1.65;;;1.15;;
25391;SDS011;13329;48.402;11.718;2022-10-16T01:11:14;9.23;;;1.30;;
25391;SDS011;13329;48.402;11.718;2022-10-16T01:13:42;5.22;;;1.35;;
25391;SDS011;13329;48.402;11.718;2022-10-16T01:16:15;4.75;;;1.40;;
25391;SDS011;13329;48.402;11.718;2022-10-16T01:18:43;2.63;;;1.10;;
25391;SDS011;13329;48.402;11.718;2022-10-16T01:21:51;1.80;;;1.10;;
25391;SDS011;13329;48.402;11.718;2022-10-16T01:24:08;2.10;;;1.25;;
25391;SDS011;13329;48.402;11.718;2022-10-16T01:31:47;5.60;;;1.60;;
25391;SDS011;13329;48.402;11.718;2022-10-16T01:34:17;7.93;;;1.50;;
25391;SDS011;13329;48.402;11.718;2022-10-16T01:36:48;3.40;;;1.30;;
25391;SDS011;13329;48.402;11.718;2022-10-16T01:39:15;2.35;;;1.45;;
25391;SDS011;13329;48.402;11.718;2022-10-16T01:41:46;2.78;;;1.10;;
25391;SDS011;13329;48.402;11.718;2022-10-16T01:44:14;2.28;;;1.30;;
25391;SDS011;13329;48.402;11.718;2022-10-16T01:46:43;3.63;;;1.30;;
25391;SDS011;13329;48.402;11.718;2022-10-16T01:49:10;1.58;;;1.20;;
25391;SDS011;13329;48.402;11.718;2022-10-16T01:51:36;2.05;;;1.38;;
25391;SDS011;13329;48.402;11.718;2022-10-16T01:54:02;7.78;;;1.50;;
25391;SDS011;13329;48.402;11.718;2022-10-16T01:56:28;3.88;;;2.28;;
25391;SDS011;13329;48.402;11.718;2022-10-16T01:58:58;5.43;;;1.45;;
25391;SDS011;13329;48.402;11.718;2022-10-16T02:01:24;4.40;;;1.20;;
25391;SDS011;13329;48.402;11.718;2022-10-16T02:03:51;2.67;;;1.33;;
25391;SDS011;13329;48.402;11.718;2022-10-16T02:06:18;3.17;;;1.35;;
25391;SDS011;13329;48.402;11.718;2022-10-16T02:08:43;2.40;;;1.27;;
25391;SDS011;13329;48.402;11.718;2022-10-16T02:11:09;3.60;;;1.58;;
25391;SDS011;13329;48.402;11.718;2022-10-16T02:13:38;2.45;;;1.40;;
25391;SDS011;13329;48.402;11.718;2022-10-16T02:16:03;2.50;;;1.58;;
25391;SDS011;13329;48.402;11.718;2022-10-16T02:18:29;3.60;;;1.60;;
25391;SDS011;13329;48.402;11.718;2022-10-16T02:20:59;2.85;;;1.40;;
25391;SDS011;13329;48.402;11.718;2022-10-16T02:23:42;6.25;;;1.50;;
25391;SDS011;13329;48.402;11.718;2022-10-16T02:26:12;3.92;;;1.30;;
25391;SDS011;13329;48.402;11.718;2022-10-16T02:28:40;2.38;;;1.10;;
25391;SDS011;13329;48.402;11.718;2022-10-16T02:31:08;2.83;;;1.27;;
25391;SDS011;13329;48.402;11.718;2022-10-16T02:33:33;3.35;;;1.10;;
25391;SDS011;13329;48.402;11.718;2022-10-16T02:36:00;1.55;;;1.17;;
25391;SDS011;13329;48.402;11.718;2022-10-16T02:38:25;2.00;;;1.20;;
25391;SDS011;13329;48.402;11.718;2022-10-16T02:40:51;4.72;;;0.98;;
25391;SDS011;13329;48.402;11.718;2022-10-16T02:43:16;2.40;;;1.30;;
25391;SDS011;13329;48.402;11.718;2022-10-16T02:45:42;1.75;;;1.10;;
25391;SDS011;13329;48.402;11.718;2022-10-16T02:48:07;3.33;;;1.40;;
25391;SDS011;13329;48.402;11.718;2022-10-16T02:50:32;2.07;;;1.40;;
25391;SDS011;13329;48.402;11.718;2022-10-16T02:52:57;2.10;;;1.03;;
25391;SDS011;13329;48.402;11.718;2022-10-16T02:55:22;4.53;;;1.10;;
25391;SDS011;13329;48.402;11.718;2022-10-16T02:57:48;2.20;;;1.13;;
25391;SDS011;13329;48.402;11.718;2022-10-16T03:00:14;2.20;;;1.10;;
25391;SDS011;13329;48.402;11.718;2022-10-16T03:02:39;3.10;;;1.42;;
25391;SDS011;13329;48.402;11.718;2022-10-16T03:05:04;2.63;;;1.30;;
25391;SDS011;13329;48.402;11.718;2022-10-16T03:07:30;2.90;;;1.48;;
25391;SDS011;13329;48.402;11.718;2022-10-16T03:09:55;2.30;;;1.13;;
25391;SDS011;13329;48.402;11.718;2022-10-16T03:12:20;2.90;;;1.30;;
25391;SDS011;13329;48.402;11.718;2022-10-16T03:14:45;1.92;;;1.30;;
25391;SDS011;13329;48.402;11.718;2022-10-16T03:17:11;4.70;;;1.60;;
25391;SDS011;13329;48.402;11.718;2022-10-16T03:19:37;1.55;;;1.20;;
25391;SDS011;13329;48.402;11.718;2022-10-16T03:22:02;1.83;;;1.30;;
25391;SDS011;13329;48.402;11.718;2022-10-16T03:24:27;1.37;;;1.17;;
25391;SDS011;13329;48.402;11.718;2022-10-16T03:26:53;5.63;;;1.40;;
25391;SDS011;13329;48.402;11.718;2022-10-16T03:29:18;3.33;;;1.20;;
25391;SDS011;13329;48.402;11.718;2022-10-16T03:31:43;2.37;;;1.60;;
25391;SDS011;13329;48.402;11.718;2022-10-16T03:34:08;2.40;;;1.37;;
25391;SDS011;13329;48.402;11.718;2022-10-16T03:36:33;3.17;;;1.30;;
25391;SDS011;13329;48.402;11.718;2022-10-16T03:38:59;1.80;;;1.17;;
25391;SDS011;13329;48.402;11.718;2022-10-16T03:41:24;2.67;;;1.20;;
25391;SDS011;13329;48.402;11.718;2022-10-16T03:43:49;1.70;;;1.20;;
25391;SDS011;13329;48.402;11.718;2022-10-16T03:46:15;1.70;;;1.23;;
25391;SDS011;13329;48.402;11.718;2022-10-16T03:48:40;1.90;;;1.23;;
25391;SDS011;13329;48.402;11.718;2022-10-16T03:51:05;2.80;;;1.55;;
25391;SDS011;13329;48.402;11.718;2022-10-16T03:53:30;2.33;;;1.25;;
25391;SDS011;13329;48.402;11.718;2022-10-16T03:55:56;1.90;;;1.10;;
25391;SDS011;13329;48.402;11.718;2022-10-16T03:58:21;4.20;;;1.07;;
25391;SDS011;13329;48.402;11.718;2022-10-16T04:00:46;3.20;;;1.47;;
25391;SDS011;13329;48.402;11.718;2022-10-16T04:03:12;5.57;;;1.10;;
25391;SDS011;13329;48.402;11.718;2022-10-16T04:05:37;1.35;;;0.98;;
25391;SDS011;13329;48.402;11.718;2022-10-16T04:08:03;1.53;;;1.33;;
25391;SDS011;13329;48.402;11.718;2022-10-16T04:10:28;1.33;;;1.02;;
25391;SDS011;13329;48.402;11.718;2022-10-16T04:12:53;1.93;;;1.00;;
25391;SDS011;13329;48.402;11.718;2022-10-16T04:15:21;2.03;;;1.00;;
25391;SDS011;13329;48.402;11.718;2022-10-16T04:17:46;3.55;;;1.13;;
25391;SDS011;13329;48.402;11.718;2022-10-16T04:20:11;6.97;;;1.33;;
25391;SDS011;13329;48.402;11.718;2022-10-16T04:22:37;1.50;;;1.10;;
25391;SDS011;13329;48.402;11.718;2022-10-16T04:25:02;1.20;;;0.90;;
25391;SDS011;13329;48.402;11.718;2022-10-16T04:27:27;1.48;;;0.75;;
25391;SDS011;13329;48.402;11.718;2022-10-16T04:29:53;4.90;;;1.10;;
25391;SDS011;13329;48.402;11.718;2022-10-16T04:32:18;1.33;;;1.00;;
25391;SDS011;13329;48.402;11.718;2022-10-16T04:34:43;2.27;;;1.07;;
25391;SDS011;13329;48.402;11.718;2022-10-16T04:37:08;2.43;;;1.10;;
25391;SDS011;13329;48.402;11.718;2022-10-16T04:39:34;1.70;;;1.00;;
25391;SDS011;13329;48.402;11.718;2022-10-16T04:41:59;5.13;;;1.40;;
25391;SDS011;13329;48.402;11.718;2022-10-16T04:44:24;2.43;;;1.10;;
25391;SDS011;13329;48.402;11.718;2022-10-16T04:46:52;1.33;;;1.00;;
25391;SDS011;13329;48.402;11.718;2022-10-16T04:49:17;1.35;;;1.00;;
25391;SDS011;13329;48.402;11.718;2022-10-16T04:51:43;1.40;;;1.00;;
25391;SDS011;13329;48.402;11.718;2022-10-16T04:54:08;1.40;;;1.00;;
25391;SDS011;13329;48.402;11.718;2022-10-16T04:56:34;1.30;;;0.80;;
25391;SDS011;13329;48.402;11.718;2022-10-16T04:59:05;1.50;;;0.90;;
25391;SDS011;13329;48.402;11.718;2022-10-16T05:01:30;1.00;;;0.83;;
25391;SDS011;13329;48.402;11.718;2022-10-16T05:03:55;1.73;;;0.90;;
25391;SDS011;13329;48.402;11.718;2022-10-16T05:06:20;4.27;;;1.00;;
25391;SDS011;13329;48.402;11.718;2022-10-16T05:08:45;1.97;;;0.80;;
25391;SDS011;13329;48.402;11.718;2022-10-16T05:11:10;3.43;;;1.00;;
25391;SDS011;13329;48.402;11.718;2022-10-16T05:13:36;1.30;;;0.90;;
25391;SDS011;13329;48.402;11.718;2022-10-16T05:16:01;1.00;;;0.70;;
25391;SDS011;13329;48.402;11.718;2022-10-16T05:18:26;1.50;;;0.97;;
25391;SDS011;13329;48.402;11.718;2022-10-16T05:20:51;1.60;;;1.07;;
25391;SDS011;13329;48.402;11.718;2022-10-16T05:23:16;1.10;;;0.70;;
25391;SDS011;13329;48.402;11.718;2022-10-16T05:25:41;2.73;;;1.20;;
25391;SDS011;13329;48.402;11.718;2022-10-16T05:28:07;1.40;;;1.00;;
25391;SDS011;13329;48.402;11.718;2022-10-16T05:30:32;3.80;;;0.93;;
25391;SDS011;13329;48.402;11.718;2022-10-16T05:32:57;1.35;;;0.88;;
25391;SDS011;13329;48.402;11.718;2022-10-16T05:35:22;2.33;;;0.80;;
25391;SDS011;13329;48.402;11.718;2022-10-16T05:37:48;1.40;;;0.80;;
25391;SDS011;13329;48.402;11.718;2022-10-16T05:40:13;3.33;;;0.90;;
25391;SDS011;13329;48.402;11.718;2022-10-16T05:42:39;1.45;;;1.00;;
25391;SDS011;13329;48.402;11.718;2022-10-16T05:45:08;3.80;;;0.82;;
25391;SDS011;13329;48.402;11.718;2022-10-16T05:47:34;2.30;;;1.00;;
25391;SDS011;13329;48.402;11.718;2022-10-16T05:49:59;2.13;;;0.90;;
25391;SDS011;13329;48.402;11.718;2022-10-16T05:52:24;0.83;;;0.70;;
25391;SDS011;13329;48.402;11.718;2022-10-16T05:54:49;2.10;;;1.00;;
25391;SDS011;13329;48.402;11.718;2022-10-16T05:57:14;2.10;;;0.80;;
25391;SDS011;13329;48.402;11.718;2022-10-16T05:59:40;1.77;;;1.00;;
25391;SDS011;13329;48.402;11.718;2022-10-16T06:02:05;0.90;;;0.73;;
25391;SDS011;13329;48.402;11.718;2022-10-16T06:04:30;1.90;;;0.93;;
25391;SDS011;13329;48.402;11.718;2022-10-16T06:06:57;1.33;;;1.00;;
25391;SDS011;13329;48.402;11.718;2022-10-16T06:09:25;0.80;;;0.75;;
25391;SDS011;13329;48.402;11.718;2022-10-16T06:11:50;1.73;;;0.90;;
25391;SDS011;13329;48.402;11.718;2022-10-16T06:14:15;1.10;;;0.93;;
25391;SDS011;13329;48.402;11.718;2022-10-16T06:16:40;1.80;;;1.00;;
25391;SDS011;13329;48.402;11.718;2022-10-16T06:19:05;1.03;;;0.77;;
25391;SDS011;13329;48.402;11.718;2022-10-16T06:21:33;2.75;;;0.80;;
25391;SDS011;13329;48.402;11.718;2022-10-16T06:23:58;1.67;;;0.85;;
25391;SDS011;13329;48.402;11.718;2022-10-16T06:26:27;3.25;;;0.80;;
25391;SDS011;13329;48.402;11.718;2022-10-16T06:28:56;1.92;;;1.15;;
25391;SDS011;13329;48.402;11.718;2022-10-16T06:31:21;0.95;;;0.70;;
25391;SDS011;13329;48.402;11.718;2022-10-16T06:33:50;1.60;;;0.93;;
25391;SDS011;13329;48.402;11.718;2022-10-16T06:36:16;1.17;;;0.80;;
25391;SDS011;13329;48.402;11.718;2022-10-16T06:38:42;1.33;;;0.93;;
25391;SDS011;13329;48.402;11.718;2022-10-16T06:41:08;0.90;;;0.80;;
25391;SDS011;13329;48.402;11.718;2022-10-16T06:43:34;1.38;;;1.00;;
25391;SDS011;13329;48.402;11.718;2022-10-16T06:46:02;1.42;;;0.75;;
25391;SDS011;13329;48.402;11.718;2022-10-16T06:48:28;1.15;;;0.65;;
25391;SDS011;13329;48.402;11.718;2022-10-16T06:51:00;1.65;;;0.73;;
25391;SDS011;13329;48.402;11.718;2022-10-16T06:53:26;1.85;;;0.80;;
25391;SDS011;13329;48.402;11.718;2022-10-16T06:55:52;2.38;;;1.10;;
25391;SDS011;13329;48.402;11.718;2022-10-16T06:58:18;1.55;;;1.10;;
25391;SDS011;13329;48.402;11.718;2022-10-16T07:00:43;3.85;;;0.88;;
25391;SDS011;13329;48.402;11.718;2022-10-16T07:03:08;1.80;;;1.03;;
25391;SDS011;13329;48.402;11.718;2022-10-16T07:05:40;2.73;;;1.17;;
25391;SDS011;13329;48.402;11.718;2022-10-16T07:08:05;1.60;;;0.95;;
25391;SDS011;13329;48.402;11.718;2022-10-16T07:10:31;1.17;;;0.90;;
25391;SDS011;13329;48.402;11.718;2022-10-16T07:12:56;1.30;;;0.90;;
25391;SDS011;13329;48.402;11.718;2022-10-16T07:15:21;3.13;;;1.05;;
25391;SDS011;13329;48.402;11.718;2022-10-16T07:17:46;2.07;;;0.80;;
25391;SDS011;13329;48.402;11.718;2022-10-16T07:20:12;1.67;;;1.03;;
25391;SDS011;13329;48.402;11.718;2022-10-16T07:22:37;3.90;;;2.33;;
25391;SDS011;13329;48.402;11.718;2022-10-16T07:25:02;3.80;;;1.50;;
25391;SDS011;13329;48.402;11.718;2022-10-16T07:27:27;1.95;;;1.10;;
25391;SDS011;13329;48.402;11.718;2022-10-16T07:29:53;1.75;;;0.95;;
25391;SDS011;13329;48.402;11.718;2022-10-16T07:32:18;2.40;;;1.10;;
25391;SDS011;13329;48.402;11.718;2022-10-16T07:34:43;2.03;;;0.90;;
25391;SDS011;13329;48.402;11.718;2022-10-16T07:37:08;5.97;;;1.00;;
25391;SDS011;13329;48.402;11.718;2022-10-16T07:39:33;1.00;;;0.73;;
25391;SDS011;13329;48.402;11.718;2022-10-16T07:41:58;3.43;;;0.80;;
25391;SDS011;13329;48.402;11.718;2022-10-16T07:44:24;1.90;;;0.93;;
25391;SDS011;13329;48.402;11.718;2022-10-16T07:46:49;1.37;;;0.70;;
25391;SDS011;13329;48.402;11.718;2022-10-16T07:49:14;0.70;;;0.70;;
25391;SDS011;13329;48.402;11.718;2022-10-16T07:51:39;4.65;;;1.00;;
25391;SDS011;13329;48.402;11.718;2022-10-16T07:54:04;1.70;;;1.00;;
25391;SDS011;13329;48.402;11.718;2022-10-16T07:56:30;1.27;;;0.80;;
25391;SDS011;13329;48.402;11.718;2022-10-16T07:58:55;4.13;;;1.00;;
25391;SDS011;13329;48.402;11.718;2022-10-16T08:01:21;1.45;;;1.00;;
25391;SDS011;13329;48.402;11.718;2022-10-16T08:03:50;4.43;;;1.10;;
25391;SDS011;13329;48.402;11.718;2022-10-16T08:06:16;3.10;;;0.93;;
25391;SDS011;13329;48.402;11.718;2022-10-16T08:08:41;0.75;;;0.73;;
25391;SDS011;13329;48.402;11.718;2022-10-16T08:11:06;3.67;;;1.33;;
25391;SDS011;13329;48.402;11.718;2022-10-16T08:13:31;1.07;;;0.93;;
25391;SDS011;13329;48.402;11.718;2022-10-16T08:15:57;2.17;;;1.27;;
25391;SDS011;13329;48.402;11.718;2022-10-16T08:18:22;1.60;;;0.90;;
25391;SDS011;13329;48.402;11.718;2022-10-16T08:20:47;1.40;;;1.00;;
25391;SDS011;13329;48.402;11.718;2022-10-16T08:23:12;2.00;;;0.87;;
25391;SDS011;13329;48.402;11.718;2022-10-16T08:25:38;2.58;;;0.90;;
25391;SDS011;13329;48.402;11.718;2022-10-16T08:28:04;1.67;;;0.90;;
25391;SDS011;13329;48.402;11.718;2022-10-16T08:30:30;1.15;;;0.80;;
25391;SDS011;13329;48.402;11.718;2022-10-16T08:32:55;1.95;;;0.88;;
25391;SDS011;13329;48.402;11.718;2022-10-16T08:35:21;1.80;;;1.00;;
25391;SDS011;13329;48.402;11.718;2022-10-16T08:37:46;1.80;;;1.10;;
25391;SDS011;13329;48.402;11.718;2022-10-16T08:40:22;2.50;;;0.97;;
25391;SDS011;13329;48.402;11.718;2022-10-16T08:50:41;1.05;;;0.80;;
25391;SDS011;13329;48.402;11.718;2022-10-16T08:53:09;1.20;;;0.90;;
25391;SDS011;13329;48.402;11.718;2022-10-16T08:55:41;4.38;;;0.90;;
25391;SDS011;13329;48.402;11.718;2022-10-16T08:58:17;1.17;;;0.88;;
25391;SDS011;13329;48.402;11.718;2022-10-16T09:00:43;1.45;;;0.98;;
25391;SDS011;13329;48.402;11.718;2022-10-16T09:03:16;1.85;;;0.93;;
25391;SDS011;13329;48.402;11.718;2022-10-16T09:13:00;2.73;;;1.23;;
25391;SDS011;13329;48.402;11.718;2022-10-16T09:17:59;1.83;;;0.98;;
25391;SDS011;13329;48.402;11.718;2022-10-16T09:20:30;2.03;;;1.13;;
25391;SDS011;13329;48.402;11.718;2022-10-16T09:23:08;2.60;;;0.80;;
25391;SDS011;13329;48.402;11.718;2022-10-16T09:25:35;3.85;;;1.23;;
25391;SDS011;13329;48.402;11.718;2022-10-16T09:28:00;4.57;;;1.02;;
25391;SDS011;13329;48.402;11.718;2022-10-16T09:30:26;1.90;;;0.90;;
25391;SDS011;13329;48.402;11.718;2022-10-16T09:32:52;2.20;;;1.05;;
25391;SDS011;13329;48.402;11.718;2022-10-16T09:35:37;2.47;;;1.25;;
25391;SDS011;13329;48.402;11.718;2022-10-16T09:38:03;2.97;;;1.00;;
25391;SDS011;13329;48.402;11.718;2022-10-16T09:40:37;3.37;;;0.90;;
25391;SDS011;13329;48.402;11.718;2022-10-16T09:43:16;2.65;;;1.00;;
25391;SDS011;13329;48.402;11.718;2022-10-16T09:45:52;0.77;;;0.63;;
25391;SDS011;13329;48.402;11.718;2022-10-16T09:48:18;1.23;;;0.90;;
25391;SDS011;13329;48.402;11.718;2022-10-16T09:50:54;1.42;;;0.90;;
25391;SDS011;13329;48.402;11.718;2022-10-16T09:53:20;2.30;;;1.10;;
25391;SDS011;13329;48.402;11.718;2022-10-16T09:55:51;3.88;;;1.30;;
25391;SDS011;13329;48.402;11.718;2022-10-16T09:58:16;1.65;;;1.10;;
25391;SDS011;13329;48.402;11.718;2022-10-16T10:00:42;1.10;;;1.00;;
25391;SDS011;13329;48.402;11.718;2022-10-16T10:03:15;1.63;;;0.85;;
25391;SDS011;13329;48.402;11.718;2022-10-16T10:05:48;1.73;;;1.02;;
25391;SDS011;13329;48.402;11.718;2022-10-16T10:08:14;3.08;;;1.00;;
25391;SDS011;13329;48.402;11.718;2022-10-16T10:10:41;1.50;;;0.93;;
25391;SDS011;13329;48.402;11.718;2022-10-16T10:13:20;4.57;;;1.00;;
25391;SDS011;13329;48.402;11.718;2022-10-16T10:15:46;1.80;;;1.10;;
25391;SDS011;13329;48.402;11.718;2022-10-16T10:18:20;1.33;;;1.00;;
25391;SDS011;13329;48.402;11.718;2022-10-16T10:20:56;2.40;;;1.00;;
25391;SDS011;13329;48.402;11.718;2022-10-16T10:23:23;1.17;;;0.90;;
25391;SDS011;13329;48.402;11.718;2022-10-16T10:25:54;1.10;;;0.90;;
25391;SDS011;13329;48.402;11.718;2022-10-16T10:31:12;2.17;;;1.00;;
25391;SDS011;13329;48.402;11.718;2022-10-16T10:38:55;1.45;;;1.02;;
25391;SDS011;13329;48.402;11.718;2022-10-16T10:43:54;1.88;;;1.10;;
25391;SDS011;13329;48.402;11.718;2022-10-16T10:46:25;1.50;;;0.97;;
25391;SDS011;13329;48.402;11.718;2022-10-16T10:49:07;1.90;;;1.20;;
25391;SDS011;13329;48.402;11.718;2022-10-16T10:54:32;1.05;;;0.80;;
25391;SDS011;13329;48.402;11.718;2022-10-16T10:57:08;1.30;;;0.85;;
25391;SDS011;13329;48.402;11.718;2022-10-16T11:06:59;1.58;;;1.08;;
25391;SDS011;13329;48.402;11.718;2022-10-16T11:09:27;3.72;;;1.30;;
25391;SDS011;13329;48.402;11.718;2022-10-16T11:12:11;1.42;;;1.02;;
25391;SDS011;13329;48.402;11.718;2022-10-16T11:17:23;1.92;;;1.13;;
25391;SDS011;13329;48.402;11.718;2022-10-16T11:22:19;1.97;;;1.00;;
25391;SDS011;13329;48.402;11.718;2022-10-16T11:24:48;1.30;;;0.93;;
25391;SDS011;13329;48.402;11.718;2022-10-16T11:27:17;1.95;;;1.00;;
25391;SDS011;13329;48.402;11.718;2022-10-16T11:29:58;2.78;;;1.30;;
25391;SDS011;13329;48.402;11.718;2022-10-16T11:32:32;4.55;;;0.90;;
25391;SDS011;13329;48.402;11.718;2022-10-16T11:35:06;1.40;;;0.88;;
25391;SDS011;13329;48.402;11.718;2022-10-16T11:37:35;2.97;;;1.00;;
25391;SDS011;13329;48.402;11.718;2022-10-16T11:40:16;1.33;;;0.98;;
25391;SDS011;13329;48.402;11.718;2022-10-16T11:42:45;1.38;;;0.93;;
25391;SDS011;13329;48.402;11.718;2022-10-16T11:45:32;1.60;;;1.00;;
25391;SDS011;13329;48.402;11.718;2022-10-16T11:53:16;1.42;;;0.98;;
25391;SDS011;13329;48.402;11.718;2022-10-16T11:55:42;1.75;;;0.90;;
25391;SDS011;13329;48.402;11.718;2022-10-16T12:00:55;1.40;;;0.80;;
25391;SDS011;13329;48.402;11.718;2022-10-16T12:03:29;1.67;;;1.27;;
25391;SDS011;13329;48.402;11.718;2022-10-16T12:08:30;0.80;;;0.70;;
25391;SDS011;13329;48.402;11.718;2022-10-16T12:13:42;0.90;;;0.60;;
25391;SDS011;13329;48.402;11.718;2022-10-16T12:18:36;0.47;;;0.40;;
25391;SDS011;13329;48.402;11.718;2022-10-16T12:21:01;1.13;;;0.70;;
25391;SDS011;13329;48.402;11.718;2022-10-16T12:23:32;1.40;;;0.50;;
25391;SDS011;13329;48.402;11.718;2022-10-16T12:25:58;1.00;;;0.77;;
25391;SDS011;13329;48.402;11.718;2022-10-16T12:28:27;1.55;;;0.60;;
25391;SDS011;13329;48.402;11.718;2022-10-16T12:30:54;1.17;;;0.77;;
25391;SDS011;13329;48.402;11.718;2022-10-16T12:33:20;1.08;;;0.73;;
25391;SDS011;13329;48.402;11.718;2022-10-16T12:35:46;0.50;;;0.40;;
25391;SDS011;13329;48.402;11.718;2022-10-16T12:38:15;1.10;;;0.60;;
25391;SDS011;13329;48.402;11.718;2022-10-16T12:40:42;1.85;;;0.50;;
25391;SDS011;13329;48.402;11.718;2022-10-16T12:43:12;0.45;;;0.40;;
25391;SDS011;13329;48.402;11.718;2022-10-16T12:45:37;0.88;;;0.40;;
25391;SDS011;13329;48.402;11.718;2022-10-16T12:48:04;2.03;;;0.43;;
25391;SDS011;13329;48.402;11.718;2022-10-16T12:50:34;1.27;;;0.40;;
25391;SDS011;13329;48.402;11.718;2022-10-16T12:53:00;1.17;;;0.57;;
25391;SDS011;13329;48.402;11.718;2022-10-16T12:55:25;1.05;;;0.30;;
25391;SDS011;13329;48.402;11.718;2022-10-16T12:58:00;0.60;;;0.50;;
25391;SDS011;13329;48.402;11.718;2022-10-16T13:00:44;0.40;;;0.30;;
25391;SDS011;13329;48.402;11.718;2022-10-16T13:03:21;0.38;;;0.30;;
25391;SDS011;13329;48.402;11.718;2022-10-16T13:08:26;0.47;;;0.30;;
25391;SDS011;13329;48.402;11.718;2022-10-16T13:16:50;0.85;;;0.43;;
25391;SDS011;13329;48.402;11.718;2022-10-16T13:21:25;1.23;;;0.40;;
25391;SDS011;13329;48.402;11.718;2022-10-16T13:26:44;0.73;;;0.20;;
25391;SDS011;13329;48.402;11.718;2022-10-16T13:29:11;2.78;;;0.30;;
25391;SDS011;13329;48.402;11.718;2022-10-16T13:31:37;0.28;;;0.28;;
25391;SDS011;13329;48.402;11.718;2022-10-16T13:34:03;1.83;;;0.40;;
25391;SDS011;13329;48.402;11.718;2022-10-16T13:36:33;0.73;;;0.32;;
25391;SDS011;13329;48.402;11.718;2022-10-16T13:39:44;2.67;;;0.40;;
25391;SDS011;13329;48.402;11.718;2022-10-16T13:41:44;1.10;;;0.40;;
25391;SDS011;13329;48.402;11.718;2022-10-16T13:44:14;0.70;;;0.40;;
25391;SDS011;13329;48.402;11.718;2022-10-16T13:46:40;0.52;;;0.40;;
25391;SDS011;13329;48.402;11.718;2022-10-16T13:49:10;0.93;;;0.50;;
25391;SDS011;13329;48.402;11.718;2022-10-16T13:51:36;1.50;;;0.30;;
25391;SDS011;13329;48.402;11.718;2022-10-16T13:54:01;0.30;;;0.30;;
25391;SDS011;13329;48.402;11.718;2022-10-16T13:56:27;0.50;;;0.33;;
25391;SDS011;13329;48.402;11.718;2022-10-16T13:59:00;1.50;;;0.57;;
25391;SDS011;13329;48.402;11.718;2022-10-16T14:01:40;0.35;;;0.28;;
25391;SDS011;13329;48.402;11.718;2022-10-16T14:04:07;0.30;;;0.30;;
25391;SDS011;13329;48.402;11.718;2022-10-16T14:06:33;0.95;;;0.35;;
25391;SDS011;13329;48.402;11.718;2022-10-16T14:09:00;0.60;;;0.38;;
25391;SDS011;13329;48.402;11.718;2022-10-16T14:11:26;0.17;;;0.15;;
25391;SDS011;13329;48.402;11.718;2022-10-16T14:13:51;0.40;;;0.40;;
25391;SDS011;13329;48.402;11.718;2022-10-16T14:16:21;1.02;;;0.30;;
25391;SDS011;13329;48.402;11.718;2022-10-16T14:18:50;1.35;;;0.32;;
25391;SDS011;13329;48.402;11.718;2022-10-16T14:21:17;1.20;;;0.50;;
25391;SDS011;13329;48.402;11.718;2022-10-16T14:23:43;0.50;;;0.30;;
25391;SDS011;13329;48.402;11.718;2022-10-16T14:28:34;0.22;;;0.22;;
25391;SDS011;13329;48.402;11.718;2022-10-16T14:30:59;0.82;;;0.40;;
25391;SDS011;13329;48.402;11.718;2022-10-16T14:38:25;1.13;;;0.40;;
25391;SDS011;13329;48.402;11.718;2022-10-16T14:40:50;0.20;;;0.20;;
25391;SDS011;13329;48.402;11.718;2022-10-16T14:43:20;0.63;;;0.60;;
25391;SDS011;13329;48.402;11.718;2022-10-16T14:45:50;0.55;;;0.40;;
25391;SDS011;13329;48.402;11.718;2022-10-16T14:48:16;2.80;;;0.38;;
25391;SDS011;13329;48.402;11.718;2022-10-16T14:50:42;0.55;;;0.30;;
25391;SDS011;13329;48.402;11.718;2022-10-16T14:53:13;0.60;;;0.40;;
25391;SDS011;13329;48.402;11.718;2022-10-16T14:55:39;0.32;;;0.30;;
25391;SDS011;13329;48.402;11.718;2022-10-16T14:58:05;0.52;;;0.40;;
25391;SDS011;13329;48.402;11.718;2022-10-16T15:00:30;0.50;;;0.40;;
25391;SDS011;13329;48.402;11.718;2022-10-16T15:02:55;0.60;;;0.50;;
25391;SDS011;13329;48.402;11.718;2022-10-16T15:05:21;1.60;;;0.63;;
25391;SDS011;13329;48.402;11.718;2022-10-16T15:07:47;2.78;;;0.40;;
25391;SDS011;13329;48.402;11.718;2022-10-16T15:10:13;0.40;;;0.40;;
25391;SDS011;13329;48.402;11.718;2022-10-16T15:12:39;2.47;;;0.60;;
25391;SDS011;13329;48.402;11.718;2022-10-16T15:20:13;0.60;;;0.45;;
25391;SDS011;13329;48.402;11.718;2022-10-16T15:22:38;0.53;;;0.50;;
25391;SDS011;13329;48.402;11.718;2022-10-16T15:25:19;1.70;;;0.47;;
25391;SDS011;13329;48.402;11.718;2022-10-16T15:27:49;1.05;;;0.63;;
25391;SDS011;13329;48.402;11.718;2022-10-16T15:30:14;0.60;;;0.50;;
25391;SDS011;13329;48.402;11.718;2022-10-16T15:32:39;2.50;;;0.40;;
25391;SDS011;13329;48.402;11.718;2022-10-16T15:35:07;1.13;;;0.80;;
25391;SDS011;13329;48.402;11.718;2022-10-16T15:37:32;2.00;;;0.70;;
25391;SDS011;13329;48.402;11.718;2022-10-16T15:39:58;1.27;;;0.67;;
25391;SDS011;13329;48.402;11.718;2022-10-16T15:42:23;5.07;;;0.60;;
25391;SDS011;13329;48.402;11.718;2022-10-16T15:44:48;1.88;;;0.70;;
25391;SDS011;13329;48.402;11.718;2022-10-16T15:47:14;0.63;;;0.45;;
25391;SDS011;13329;48.402;11.718;2022-10-16T15:49:40;0.70;;;0.60;;
25391;SDS011;13329;48.402;11.718;2022-10-16T15:52:05;1.90;;;0.40;;
25391;SDS011;13329;48.402;11.718;2022-10-16T15:54:30;1.30;;;0.50;;
25391;SDS011;13329;48.402;11.718;2022-10-16T15:56:55;1.33;;;0.60;;
25391;SDS011;13329;48.402;11.718;2022-10-16T15:59:20;0.53;;;0.33;;
25391;SDS011;13329;48.402;11.718;2022-10-16T16:01:45;1.23;;;0.80;;
25391;SDS011;13329;48.402;11.718;2022-10-16T16:04:11;0.63;;;0.60;;
25391;SDS011;13329;48.402;11.718;2022-10-16T16:06:37;2.58;;;0.60;;
25391;SDS011;13329;48.402;11.718;2022-10-16T16:09:04;0.90;;;0.47;;